This is the latest recevied weather packets stored in our database for station/object VU3IZK-13. If no packets are shown the sender has not sent any weather packets the latest 1 day(s).
| Time | Temp. | Humidity | Pressure | Rain* | Wind** | Luminosity | Snow |
|---|---|---|---|---|---|---|---|
| 1777989632 | 26.67° C | 71% | 0 hPa | 0 mm | 2.68 m/s, 0° | - | - |
| 1777988711 | 27.22° C | 70% | 0 hPa | 0 mm | 3.58 m/s, 112° | - | - |
| 1777987811 | 27.78° C | 67% | 0 hPa | 0 mm | 2.68 m/s, 3° | - | - |
| 1777986934 | 28.33° C | 63% | 0 hPa | 0 mm | 2.24 m/s, 175° | - | - |
| 1777986034 | 28.89° C | 61% | 0 hPa | 0 mm | 2.24 m/s, 157° | - | - |
| 1777985112 | 30° C | 57% | 0 hPa | 0 mm | 1.79 m/s, 130° | - | - |
| 1777984210 | 30.56° C | 52% | 0 hPa | 0 mm | 2.68 m/s, 217° | - | - |
| 1777983331 | 31.11° C | 48% | 0 hPa | 0 mm | 4.92 m/s, 236° | - | - |
| 1777982411 | 31.67° C | 46% | 0 hPa | 0 mm | 3.58 m/s, 214° | - | - |
| 1777981511 | 32.78° C | 42% | 0 hPa | 0 mm | 1.79 m/s, 186° | - | - |
| 1777980632 | 33.33° C | 41% | 0 hPa | 0 mm | 4.02 m/s, 192° | - | - |
| 1777979707 | 33.33° C | 38% | 0 hPa | 0 mm | 2.24 m/s, 268° | - | - |
| 1777978840 | 33.33° C | 37% | 0 hPa | 0 mm | 3.13 m/s, 196° | - | - |
| 1777977918 | 32.78° C | 43% | 0 hPa | 0 mm | 6.26 m/s, 233° | - | - |
| 1777977018 | 32.78° C | 46% | 0 hPa | 0 mm | 2.68 m/s, 214° | - | - |
| 1777976141 | 32.78° C | 45% | 0 hPa | 0 mm | 5.81 m/s, 204° | - | - |
| 1777975218 | 33.33° C | 44% | 0 hPa | 0 mm | 3.58 m/s, 184° | - | - |
| 1777974312 | 32.78° C | 46% | 0 hPa | 0 mm | 3.58 m/s, 284° | - | - |
| 1777973435 | 32.22° C | 44% | 0 hPa | 0 mm | 2.24 m/s, 208° | - | - |
| 1777972535 | 32.22° C | 45% | 0 hPa | 0 mm | 4.92 m/s, 232° | - | - |
| 1777971613 | 33.89° C | 39% | 0 hPa | 0 mm | 6.71 m/s, 0° | - | - |
| 1777970711 | 33.33° C | 41% | 0 hPa | 0 mm | 3.13 m/s, 260° | - | - |
| 1777969830 | 33.33° C | 45% | 0 hPa | 0 mm | 4.47 m/s, 155° | - | - |
| 1777968907 | 32.78° C | 42% | 0 hPa | 0 mm | 7.15 m/s, 202° | - | - |
| 1777968008 | 32.78° C | 47% | 0 hPa | 0 mm | 4.47 m/s, 218° | - | - |
* Rain latest hour (hover to see other rain measurements)
** Current wind speed in m/s (hover to see current wind gust speed)